2W6

St Mary's County Regional Airport

Leonardtown, Maryland, USA
METAR K2W6 251528Z AUTO 13007KT 10SM BKN021 BKN030 OVC038 26/22 A3025 RMK AO1
Observed Flight Rules
Sep-25 @ 15:28 UTC (13 minutes ago) Marginal Visual Flight Rules
Wind Visibility Clouds
130° at 7 knots 10 miles
  • Broken at 2,100' AGL
  • Broken at 3,000' AGL
  • Overcast at 3,800' AGL
Temperatures Readings
Current 26°C / 79°F
Dewpoint 22°C / 72°F
Humidity 79%
Altimeter 30.25" Hg
Pressure 1024 hPa
Elevation 44
METAR K2W6 251528Z AUTO 13007KT 10SM BKN021 BKN030 OVC038 26/22 A3025 RMK AO1
Observed Flight Rules
Sep-25 @ 15:28 UTC
(13 minutes ago)
MVFR
Wind Visibility
130° at 7 knots 10 miles
Clouds
  • Broken at 2,100' AGL
  • Broken at 3,000' AGL
  • Overcast at 3,800' AGL
Temperature Dewpoint
26°C / 79°F 22°C / 72°F
Humidity Altimeter Pressure
79% 30.25" Hg 1024 hPa